createdAt,value
2019-03-03T00:00:11.674Z,21.10
2019-03-03T00:02:39.492Z,21.10
2019-03-03T00:05:07.557Z,21.10
2019-03-03T00:07:35.430Z,21.10
2019-03-03T00:10:03.390Z,21.10
2019-03-03T00:12:31.178Z,21.10
2019-03-03T00:14:58.959Z,21.10
2019-03-03T00:17:26.791Z,21.10
2019-03-03T00:19:54.595Z,21.10
2019-03-03T00:22:22.392Z,21.10
2019-03-03T00:24:50.190Z,21.00
2019-03-03T00:27:17.982Z,21.10
2019-03-03T00:29:45.782Z,21.10
2019-03-03T00:32:13.633Z,21.10
2019-03-03T00:34:41.435Z,21.00
2019-03-03T00:37:28.422Z,21.00
2019-03-03T00:40:12.570Z,21.00
2019-03-03T00:43:14.639Z,21.00
2019-03-03T00:46:16.975Z,21.00
2019-03-03T00:49:02.493Z,21.00
2019-03-03T00:52:01.396Z,20.90
2019-03-03T00:54:37.882Z,21.00
2019-03-03T00:57:24.905Z,20.90
2019-03-03T00:59:58.495Z,20.90
2019-03-03T01:02:32.483Z,20.90
2019-03-03T01:05:09.499Z,20.90
2019-03-03T01:08:05.727Z,20.90
2019-03-03T01:10:49.463Z,20.90
2019-03-03T01:13:35.212Z,20.90
2019-03-03T01:16:15.198Z,20.90
2019-03-03T01:18:48.095Z,20.90
2019-03-03T01:21:30.794Z,20.90
2019-03-03T01:24:08.719Z,20.90
2019-03-03T01:26:36.515Z,20.90
2019-03-03T01:29:06.261Z,20.90
2019-03-03T01:31:34.446Z,20.90
2019-03-03T01:34:02.242Z,20.90
2019-03-03T01:36:30.024Z,20.80
2019-03-03T01:38:57.829Z,20.80
2019-03-03T01:41:25.622Z,20.80
2019-03-03T01:43:53.422Z,20.90
2019-03-03T01:46:21.210Z,20.80
2019-03-03T01:48:49.020Z,20.80
2019-03-03T01:51:16.811Z,20.80
2019-03-03T01:53:44.605Z,20.80
2019-03-03T01:56:12.556Z,20.80
2019-03-03T01:58:40.352Z,20.80
2019-03-03T02:01:08.209Z,20.80
2019-03-03T02:03:36.386Z,20.80
2019-03-03T02:06:04.874Z,20.70
2019-03-03T02:08:32.687Z,20.80
2019-03-03T02:11:00.470Z,20.80
2019-03-03T02:13:28.287Z,20.70
2019-03-03T02:15:56.073Z,20.80
2019-03-03T02:18:23.863Z,20.80
2019-03-03T02:20:51.655Z,20.80
2019-03-03T02:23:19.448Z,20.80
2019-03-03T02:25:47.554Z,20.70
2019-03-03T02:28:15.341Z,20.80
2019-03-03T02:30:43.133Z,20.80
2019-03-03T02:33:10.927Z,20.70
2019-03-03T02:35:38.720Z,20.70
2019-03-03T02:38:06.522Z,20.70
2019-03-03T02:40:34.318Z,20.70
2019-03-03T02:43:02.108Z,20.70
2019-03-03T02:45:29.878Z,20.70
2019-03-03T02:47:57.691Z,20.70
2019-03-03T02:50:25.541Z,20.70
2019-03-03T02:52:53.320Z,20.70
2019-03-03T02:55:21.124Z,20.70
2019-03-03T02:57:48.909Z,20.70
2019-03-03T03:00:17.695Z,20.70
2019-03-03T03:02:56.387Z,20.70
2019-03-03T03:05:42.837Z,20.70
2019-03-03T03:08:13.703Z,20.70
2019-03-03T03:10:52.632Z,20.70
2019-03-03T03:13:28.788Z,20.70
2019-03-03T03:16:05.467Z,20.70
2019-03-03T03:18:52.414Z,20.70
2019-03-03T03:21:26.178Z,20.70
2019-03-03T03:23:58.551Z,20.70
2019-03-03T03:26:34.718Z,20.70
2019-03-03T03:29:19.402Z,20.70
2019-03-03T03:32:09.379Z,20.70
2019-03-03T03:34:41.495Z,20.70
2019-03-03T03:37:37.555Z,20.70
2019-03-03T03:40:21.610Z,20.70
2019-03-03T03:43:14.534Z,20.70
2019-03-03T03:45:56.456Z,20.70
2019-03-03T03:48:31.184Z,20.70
2019-03-03T03:51:24.027Z,20.70
2019-03-03T03:54:10.989Z,20.70
2019-03-03T03:56:53.369Z,20.70
2019-03-03T03:59:32.958Z,20.70
2019-03-03T04:02:21.966Z,20.60
2019-03-03T04:05:21.301Z,20.60
2019-03-03T04:08:11.578Z,20.60
2019-03-03T04:10:45.459Z,20.60
2019-03-03T04:13:35.530Z,20.60
2019-03-03T04:16:14.683Z,20.60
2019-03-03T04:19:04.578Z,20.60
2019-03-03T04:21:57.510Z,20.60
2019-03-03T04:24:46.991Z,20.60
2019-03-03T04:27:43.228Z,20.60
2019-03-03T04:30:30.955Z,20.60
2019-03-03T04:33:06.205Z,20.60
2019-03-03T04:35:51.759Z,20.60
2019-03-03T04:38:40.218Z,20.60
2019-03-03T04:41:23.050Z,20.60
2019-03-03T04:44:22.374Z,20.60
2019-03-03T04:46:59.947Z,20.60
2019-03-03T04:49:36.007Z,20.60
2019-03-03T04:52:21.842Z,20.60
2019-03-03T04:54:59.798Z,20.60
2019-03-03T04:57:49.794Z,20.60
2019-03-03T05:00:33.817Z,20.60
2019-03-03T05:03:18.594Z,20.60
2019-03-03T05:05:56.070Z,20.60
2019-03-03T05:08:33.176Z,20.60
2019-03-03T05:11:18.741Z,20.60
2019-03-03T05:13:51.335Z,20.60
2019-03-03T05:16:28.153Z,20.50
2019-03-03T05:19:05.396Z,20.60
2019-03-03T05:21:33.202Z,20.60
2019-03-03T05:24:01.002Z,20.60
2019-03-03T05:26:28.782Z,20.60
2019-03-03T05:28:56.582Z,20.60
2019-03-03T05:31:24.367Z,20.60
2019-03-03T05:33:52.173Z,20.50
2019-03-03T05:36:19.991Z,20.50
2019-03-03T05:38:47.815Z,20.50
2019-03-03T05:41:15.601Z,20.50
2019-03-03T05:43:43.402Z,20.50
2019-03-03T05:46:11.184Z,20.50
2019-03-03T05:48:38.991Z,20.50
2019-03-03T05:51:06.782Z,20.50
2019-03-03T05:53:34.598Z,20.50
2019-03-03T05:56:02.394Z,20.50
2019-03-03T05:58:30.259Z,20.50
2019-03-03T06:00:58.062Z,20.50
2019-03-03T06:03:25.857Z,20.50
2019-03-03T06:05:53.646Z,20.40
2019-03-03T06:08:21.445Z,20.40
2019-03-03T06:10:49.253Z,20.50
2019-03-03T06:13:17.042Z,20.50
2019-03-03T06:15:44.839Z,20.40
2019-03-03T06:18:12.810Z,20.50
2019-03-03T06:20:40.594Z,20.40
2019-03-03T06:23:08.440Z,20.50
2019-03-03T06:25:36.279Z,20.40
2019-03-03T06:28:04.093Z,20.40
2019-03-03T06:30:31.926Z,20.40
2019-03-03T06:32:59.711Z,20.40
2019-03-03T06:35:27.574Z,20.40
2019-03-03T06:37:55.379Z,20.40
2019-03-03T06:40:23.193Z,20.40
2019-03-03T06:42:51.024Z,20.50
2019-03-03T06:45:18.806Z,20.40
2019-03-03T06:47:46.590Z,20.40
2019-03-03T06:50:14.384Z,20.40
2019-03-03T06:52:42.190Z,20.40
2019-03-03T06:55:10.024Z,20.40
2019-03-03T06:57:37.854Z,20.40
2019-03-03T07:00:07.294Z,20.40
2019-03-03T07:02:35.117Z,20.40
2019-03-03T07:05:02.991Z,20.40
2019-03-03T07:07:30.786Z,20.40
2019-03-03T07:09:58.611Z,20.40
2019-03-03T07:12:26.387Z,20.50
2019-03-03T07:14:54.183Z,20.60
2019-03-03T07:17:21.992Z,20.70
2019-03-03T07:19:49.775Z,20.70
2019-03-03T07:22:17.661Z,20.80
2019-03-03T07:24:45.476Z,20.90
2019-03-03T07:27:13.275Z,20.90
2019-03-03T07:29:41.074Z,20.90
2019-03-03T07:32:08.860Z,20.90
2019-03-03T07:34:36.672Z,20.90
2019-03-03T07:37:04.561Z,20.90
2019-03-03T07:39:32.372Z,20.90
2019-03-03T07:42:00.170Z,20.90
2019-03-03T07:44:28.147Z,21.00
2019-03-03T07:46:55.954Z,21.00
2019-03-03T07:49:23.781Z,21.00
2019-03-03T07:51:51.570Z,21.00
2019-03-03T07:54:19.472Z,21.00
2019-03-03T07:56:47.322Z,21.00
2019-03-03T07:59:15.130Z,21.00
2019-03-03T08:01:43.067Z,21.00
2019-03-03T08:04:10.903Z,21.10
2019-03-03T08:06:38.810Z,21.10
2019-03-03T08:09:06.594Z,21.00
2019-03-03T08:11:34.395Z,21.00
2019-03-03T08:14:02.208Z,21.00
2019-03-03T08:16:30.123Z,20.90
2019-03-03T08:18:57.927Z,20.60
2019-03-03T08:21:25.820Z,20.30
2019-03-03T08:23:53.642Z,20.00
2019-03-03T08:26:22.003Z,19.80
2019-03-03T08:28:49.786Z,19.60
2019-03-03T08:31:17.610Z,19.50
2019-03-03T08:33:45.415Z,19.40
2019-03-03T08:36:13.260Z,19.30
2019-03-03T08:38:41.053Z,19.30
2019-03-03T08:41:08.870Z,19.30
2019-03-03T08:43:55.946Z,19.30
2019-03-03T08:46:32.050Z,19.30
2019-03-03T08:49:26.983Z,19.10
2019-03-03T08:52:13.031Z,19.10
2019-03-03T08:55:00.304Z,19.00
2019-03-03T08:57:35.334Z,19.10
2019-03-03T09:00:20.321Z,19.20
2019-03-03T09:03:13.547Z,19.20
2019-03-03T09:06:12.641Z,19.30
2019-03-03T09:09:15.042Z,19.30
2019-03-03T09:12:00.835Z,19.30
2019-03-03T09:14:38.723Z,19.30
2019-03-03T09:17:21.551Z,19.20
2019-03-03T09:20:12.256Z,19.20
2019-03-03T09:23:08.150Z,19.20
2019-03-03T09:25:55.139Z,19.30
2019-03-03T09:28:40.866Z,19.30
2019-03-03T09:31:27.883Z,19.30
2019-03-03T09:34:17.859Z,19.30
2019-03-03T09:37:03.558Z,19.50
2019-03-03T09:39:50.511Z,19.50
2019-03-03T09:42:40.408Z,19.50
2019-03-03T09:45:21.294Z,19.40
2019-03-03T09:48:14.706Z,19.40
2019-03-03T09:51:08.074Z,19.40
2019-03-03T09:54:10.432Z,19.50
2019-03-03T09:56:44.759Z,19.50
2019-03-03T09:59:40.580Z,19.50
2019-03-03T10:02:19.614Z,19.70
2019-03-03T10:05:04.783Z,20.10
2019-03-03T10:07:49.153Z,20.40
2019-03-03T10:10:48.268Z,20.50
2019-03-03T10:13:35.773Z,20.70
2019-03-03T10:16:25.794Z,20.70
2019-03-03T10:19:07.503Z,20.80
2019-03-03T10:21:51.191Z,20.80
2019-03-03T10:24:31.351Z,20.80
2019-03-03T10:27:21.247Z,20.60
2019-03-03T10:30:17.245Z,20.60
2019-03-03T10:33:00.950Z,20.70
2019-03-03T10:35:40.556Z,20.90
2019-03-03T10:38:35.884Z,20.90
2019-03-03T10:41:09.825Z,20.90
2019-03-03T10:43:47.567Z,20.90
2019-03-03T10:46:27.262Z,21.00
2019-03-03T10:49:14.249Z,21.00
2019-03-03T10:51:56.622Z,21.00
2019-03-03T10:54:46.607Z,21.00
2019-03-03T10:57:32.648Z,21.00
2019-03-03T11:00:18.817Z,21.00
2019-03-03T11:03:24.134Z,21.10
2019-03-03T11:06:28.974Z,21.10
2019-03-03T11:09:11.667Z,21.00
2019-03-03T11:11:50.980Z,21.00
2019-03-03T11:14:50.370Z,21.00
2019-03-03T11:17:40.187Z,21.00
2019-03-03T11:20:24.006Z,21.00
2019-03-03T11:23:09.662Z,21.00
2019-03-03T11:25:46.682Z,21.10
2019-03-03T11:28:36.489Z,21.00
2019-03-03T11:31:29.644Z,21.10
2019-03-03T11:34:15.718Z,21.00
2019-03-03T11:36:48.807Z,21.00
2019-03-03T11:39:38.618Z,21.00
2019-03-03T11:42:34.890Z,21.10
2019-03-03T11:45:27.879Z,21.00
2019-03-03T11:48:07.234Z,21.00
2019-03-03T11:50:53.106Z,20.90
2019-03-03T11:53:34.606Z,21.00
2019-03-03T11:56:20.535Z,21.00
2019-03-03T11:58:54.803Z,21.00
2019-03-03T12:01:47.333Z,21.00
2019-03-03T12:04:29.879Z,21.00
2019-03-03T12:07:24.151Z,21.00
2019-03-03T12:10:11.106Z,21.00
2019-03-03T12:12:51.365Z,21.00
2019-03-03T12:15:25.198Z,21.00
2019-03-03T12:18:06.518Z,20.90
2019-03-03T12:20:56.301Z,20.90
2019-03-03T12:23:43.251Z,20.90
2019-03-03T12:26:30.286Z,20.90
2019-03-03T12:29:17.275Z,20.90
2019-03-03T12:32:04.223Z,20.90
2019-03-03T12:34:41.859Z,20.90
2019-03-03T12:37:31.655Z,20.90
2019-03-03T12:40:17.523Z,20.90
2019-03-03T12:42:57.172Z,20.80
2019-03-03T12:45:43.946Z,20.80
2019-03-03T12:48:29.886Z,20.80
2019-03-03T12:51:15.802Z,20.80
2019-03-03T12:54:01.584Z,20.80
2019-03-03T12:56:47.427Z,20.80
2019-03-03T12:59:34.402Z,20.80
2019-03-03T13:02:13.242Z,20.80
2019-03-03T13:05:02.933Z,20.80
2019-03-03T13:07:42.616Z,20.80
2019-03-03T13:10:26.112Z,20.80
2019-03-03T13:13:05.771Z,20.80
2019-03-03T13:15:59.311Z,20.80
2019-03-03T13:18:46.275Z,20.80
2019-03-03T13:21:32.210Z,20.80
2019-03-03T13:24:08.791Z,20.70
2019-03-03T13:27:01.869Z,20.70
2019-03-03T13:29:46.449Z,20.80
2019-03-03T13:32:20.915Z,20.70
2019-03-03T13:35:13.958Z,20.80
2019-03-03T13:38:01.927Z,20.80
2019-03-03T13:40:47.859Z,20.80
2019-03-03T13:43:15.653Z,20.80
2019-03-03T13:45:43.446Z,20.70
2019-03-03T13:48:11.258Z,20.70
2019-03-03T13:50:39.047Z,20.70
2019-03-03T13:53:06.846Z,20.70
2019-03-03T13:55:34.638Z,20.70
2019-03-03T13:58:02.453Z,20.70
2019-03-03T14:00:30.255Z,20.70
2019-03-03T14:02:58.155Z,20.80
2019-03-03T14:05:25.950Z,20.80
2019-03-03T14:07:54.082Z,20.80
2019-03-03T14:10:21.854Z,20.80
2019-03-03T14:12:49.656Z,20.80
2019-03-03T14:15:17.723Z,20.80
2019-03-03T14:17:45.507Z,20.70
2019-03-03T14:20:14.506Z,20.80
2019-03-03T14:22:42.320Z,20.80
2019-03-03T14:25:10.118Z,20.70
2019-03-03T14:27:37.917Z,20.70
2019-03-03T14:30:06.662Z,20.70
2019-03-03T14:32:34.486Z,20.70
2019-03-03T14:35:02.285Z,20.70
2019-03-03T14:37:30.144Z,20.70
2019-03-03T14:39:57.996Z,20.70
2019-03-03T14:42:25.852Z,20.70
2019-03-03T14:44:53.650Z,20.70
2019-03-03T14:47:21.439Z,20.80
2019-03-03T14:49:49.241Z,20.80
2019-03-03T14:52:17.083Z,20.80
2019-03-03T14:54:44.910Z,20.80
2019-03-03T14:57:12.755Z,20.80
2019-03-03T14:59:40.625Z,20.80
2019-03-03T15:02:08.415Z,20.80
2019-03-03T15:04:36.234Z,20.80
2019-03-03T15:07:04.021Z,20.80
2019-03-03T15:09:31.827Z,20.80
2019-03-03T15:11:59.695Z,20.80
2019-03-03T15:14:27.486Z,20.80
2019-03-03T15:16:55.889Z,20.80
2019-03-03T15:19:23.672Z,20.80
2019-03-03T15:21:51.698Z,20.80
2019-03-03T15:24:19.838Z,20.70
2019-03-03T15:26:47.789Z,20.80
2019-03-03T15:29:15.641Z,20.70
2019-03-03T15:31:43.706Z,20.70
2019-03-03T15:34:11.508Z,20.70
2019-03-03T15:36:39.301Z,20.70
2019-03-03T15:39:07.974Z,20.70
2019-03-03T15:41:36.194Z,20.70
2019-03-03T15:44:04.555Z,20.80
2019-03-03T15:46:32.371Z,20.80
2019-03-03T15:49:00.258Z,20.80
2019-03-03T15:51:28.066Z,20.80
2019-03-03T15:53:56.464Z,20.80
2019-03-03T15:56:25.126Z,20.80
2019-03-03T15:58:55.895Z,20.80
2019-03-03T16:01:23.202Z,20.80
2019-03-03T16:03:51.086Z,20.80
2019-03-03T16:06:18.928Z,20.80
2019-03-03T16:08:46.741Z,20.70
2019-03-03T16:11:14.558Z,20.70
2019-03-03T16:13:42.550Z,20.70
2019-03-03T16:16:10.527Z,20.70
2019-03-03T16:18:38.753Z,20.70
2019-03-03T16:21:06.799Z,20.70
2019-03-03T16:23:34.682Z,20.70
2019-03-03T16:26:03.206Z,20.70
2019-03-03T16:28:31.250Z,20.70
2019-03-03T16:30:59.681Z,20.70
2019-03-03T16:33:27.671Z,20.70
2019-03-03T16:35:55.539Z,20.70
2019-03-03T16:38:23.505Z,20.70
2019-03-03T16:40:51.987Z,20.70
2019-03-03T16:43:20.187Z,20.70
2019-03-03T16:45:48.250Z,20.70
2019-03-03T16:48:16.051Z,20.70
2019-03-03T16:50:44.223Z,20.70
2019-03-03T16:53:12.298Z,20.70
2019-03-03T16:55:40.558Z,20.70
2019-03-03T16:58:08.951Z,20.70
2019-03-03T17:00:37.400Z,20.80
2019-03-03T17:03:05.347Z,20.80
2019-03-03T17:05:33.342Z,20.80
2019-03-03T17:08:01.169Z,20.80
2019-03-03T17:10:29.760Z,20.80
2019-03-03T17:12:57.602Z,20.80
2019-03-03T17:15:25.394Z,20.80
2019-03-03T17:17:53.215Z,20.80
2019-03-03T17:20:21.501Z,20.80
2019-03-03T17:22:49.551Z,20.80
2019-03-03T17:25:18.695Z,20.90
2019-03-03T17:27:46.679Z,20.90
2019-03-03T17:30:15.478Z,20.90
2019-03-03T17:32:43.307Z,20.90
2019-03-03T17:35:12.051Z,20.90
2019-03-03T17:37:39.875Z,20.90
2019-03-03T17:40:08.982Z,20.90
2019-03-03T17:42:36.822Z,20.90
2019-03-03T17:45:05.394Z,20.90
2019-03-03T17:47:33.282Z,21.00
2019-03-03T17:50:01.135Z,20.90
2019-03-03T17:52:28.947Z,20.90
2019-03-03T17:54:56.738Z,20.90
2019-03-03T17:57:24.671Z,21.00
2019-03-03T17:59:52.516Z,21.00
2019-03-03T18:02:20.339Z,21.00
2019-03-03T18:04:48.234Z,21.00
2019-03-03T18:07:16.197Z,21.00
2019-03-03T18:09:43.993Z,21.00
2019-03-03T18:12:11.802Z,21.00
2019-03-03T18:14:39.586Z,21.00
2019-03-03T18:17:07.461Z,21.00
2019-03-03T18:19:35.318Z,21.00
2019-03-03T18:22:03.142Z,21.00
2019-03-03T18:24:30.934Z,21.00
2019-03-03T18:26:58.805Z,21.00
2019-03-03T18:29:26.588Z,21.00
2019-03-03T18:31:54.385Z,21.00
2019-03-03T18:34:22.175Z,21.00
2019-03-03T18:36:50.236Z,21.00
2019-03-03T18:39:18.042Z,21.00
2019-03-03T18:41:45.830Z,21.00
2019-03-03T18:44:13.609Z,21.00
2019-03-03T18:46:41.742Z,21.10
2019-03-03T18:49:09.671Z,21.10
2019-03-03T18:51:37.497Z,21.10
2019-03-03T18:54:05.278Z,21.10
2019-03-03T18:56:33.059Z,21.10
2019-03-03T18:59:00.882Z,21.10
2019-03-03T19:01:28.672Z,21.10
2019-03-03T19:03:56.514Z,21.10
2019-03-03T19:06:24.325Z,21.10
2019-03-03T19:08:52.149Z,21.10
2019-03-03T19:11:19.944Z,21.10
2019-03-03T19:13:47.767Z,21.10
2019-03-03T19:16:15.550Z,21.10
2019-03-03T19:18:43.401Z,21.10
2019-03-03T19:21:11.195Z,21.20
2019-03-03T19:23:38.977Z,21.20
2019-03-03T19:26:06.788Z,21.20
2019-03-03T19:28:34.579Z,21.20
2019-03-03T19:31:02.419Z,21.20
2019-03-03T19:33:38.736Z,21.20
2019-03-03T19:36:06.515Z,21.10
2019-03-03T19:38:34.330Z,21.00
2019-03-03T19:41:02.184Z,20.90
2019-03-03T19:43:30.102Z,20.90
2019-03-03T19:45:57.927Z,20.40
2019-03-03T19:48:25.820Z,20.70
2019-03-03T19:50:53.623Z,20.90
2019-03-03T19:53:21.448Z,21.00
2019-03-03T19:55:49.273Z,21.00
2019-03-03T19:58:17.175Z,21.00
2019-03-03T20:00:44.966Z,21.00
2019-03-03T20:03:12.834Z,21.00
2019-03-03T20:05:40.662Z,21.00
2019-03-03T20:08:08.450Z,21.00
2019-03-03T20:10:36.250Z,21.00
2019-03-03T20:13:04.051Z,21.10
2019-03-03T20:15:31.857Z,21.10
2019-03-03T20:17:59.640Z,21.10
2019-03-03T20:20:27.449Z,21.10
2019-03-03T20:22:55.256Z,21.10
2019-03-03T20:25:23.189Z,21.10
2019-03-03T20:27:51.058Z,21.10
2019-03-03T20:30:18.958Z,21.10
2019-03-03T20:32:46.747Z,21.10
2019-03-03T20:35:14.721Z,21.10
2019-03-03T20:37:42.521Z,21.10
2019-03-03T20:40:11.380Z,21.00
2019-03-03T20:42:39.182Z,21.00
2019-03-03T20:45:07.912Z,21.00
2019-03-03T20:47:35.717Z,21.00
2019-03-03T20:50:04.267Z,21.00
2019-03-03T20:52:32.093Z,21.00
2019-03-03T20:54:59.983Z,21.00
2019-03-03T20:57:27.767Z,21.00
2019-03-03T20:59:56.278Z,21.00
2019-03-03T21:02:24.139Z,21.00
2019-03-03T21:04:51.966Z,21.00
2019-03-03T21:07:19.760Z,21.00
2019-03-03T21:09:47.678Z,21.00
2019-03-03T21:12:15.478Z,21.00
2019-03-03T21:14:43.290Z,21.00
2019-03-03T21:17:11.122Z,21.00
2019-03-03T21:19:38.939Z,21.00
2019-03-03T21:22:06.778Z,21.00
2019-03-03T21:24:34.624Z,21.00
2019-03-03T21:27:02.420Z,21.00
2019-03-03T21:29:30.301Z,21.00
2019-03-03T21:31:58.154Z,21.00
2019-03-03T21:34:25.996Z,21.00
2019-03-03T21:36:53.783Z,21.00
2019-03-03T21:39:21.623Z,21.00
2019-03-03T21:41:49.439Z,21.00
2019-03-03T21:44:17.271Z,21.00
2019-03-03T21:46:45.054Z,21.00
2019-03-03T21:49:12.919Z,21.00
2019-03-03T21:51:40.717Z,21.00
2019-03-03T21:54:08.584Z,21.00
2019-03-03T21:56:36.656Z,21.10
2019-03-03T21:59:04.694Z,21.10
2019-03-03T22:01:32.667Z,21.10
2019-03-03T22:04:00.464Z,21.10
2019-03-03T22:06:28.257Z,21.10
2019-03-03T22:08:56.107Z,21.10
2019-03-03T22:11:23.965Z,21.00
2019-03-03T22:13:51.751Z,21.00
2019-03-03T22:16:19.619Z,21.00
2019-03-03T22:18:47.467Z,21.10
2019-03-03T22:21:15.243Z,21.10
2019-03-03T22:23:43.038Z,21.10
2019-03-03T22:26:10.894Z,21.10
2019-03-03T22:28:38.694Z,21.10
2019-03-03T22:31:06.506Z,21.10
2019-03-03T22:33:34.369Z,21.10
2019-03-03T22:36:02.161Z,21.10
2019-03-03T22:38:29.954Z,21.10
2019-03-03T22:40:57.742Z,21.10
2019-03-03T22:43:25.533Z,21.10
2019-03-03T22:45:53.322Z,21.10
2019-03-03T22:48:21.106Z,21.10
2019-03-03T22:50:48.894Z,21.20
2019-03-03T22:53:16.700Z,21.20
2019-03-03T22:55:44.520Z,21.20
2019-03-03T22:58:12.301Z,21.20
2019-03-03T23:00:49.114Z,21.20
2019-03-03T23:03:18.734Z,21.20
2019-03-03T23:05:58.907Z,21.20
2019-03-03T23:08:32.602Z,21.20
2019-03-03T23:11:18.403Z,21.20
2019-03-03T23:13:49.027Z,21.20
2019-03-03T23:16:51.233Z,21.20
2019-03-03T23:19:26.436Z,21.20
2019-03-03T23:22:16.838Z,21.20
2019-03-03T23:25:03.943Z,21.20
2019-03-03T23:27:31.738Z,21.10
2019-03-03T23:29:59.530Z,21.10
2019-03-03T23:32:27.317Z,21.10
2019-03-03T23:34:55.108Z,21.10
2019-03-03T23:37:22.890Z,21.10
2019-03-03T23:39:50.693Z,21.10
2019-03-03T23:42:18.499Z,21.10
2019-03-03T23:44:46.291Z,21.20
2019-03-03T23:47:14.079Z,21.10
2019-03-03T23:49:41.862Z,21.10
2019-03-03T23:52:09.646Z,21.10
2019-03-03T23:54:37.442Z,21.10
2019-03-03T23:57:05.235Z,21.10
2019-03-03T23:59:33.029Z,21.10
